Arrow Post — CG2882 — position and weather

sailwx.info

Track history (hours):
 
Tides and Currents Weather Stations Pressure Air Temp Water Temp Dewpoint Dewpoint Depression Visibility Wind Speed Wind Dir Waves Ship Positions

Arrow Post

Last reported at 2015-Mar-30 19:03 UTC. Time now 2015-Mar-31 06:42 UTC.
Position N 50°43' W 127°06'.

Length 29 m; draft 3.5 m.

Type: SAR. MMSI: 316001090.

Date/timePositionNaut miles runAvg speedWind from/ knotsBaromVisibWave heightAir tempDewpointWater temp
2015-Mar-30 19:03N 50°43' W 127°06'610.5
2015-Mar-30 18:29N 50°45' W 127°15'9 9.0
2015-Mar-30 17:32N 50°44' W 127°28'1 0.8
2015-Mar-30 16:33N 50°43' W 127°29'4 3.7
2015-Mar-30 15:33N 50°47' W 127°31'10 9.7
2015-Mar-30 14:33N 50°50' W 127°45'4 3.5
2015-Mar-30 13:16N 50°51' W 127°52'0 0.0
2015-Mar-30 12:16N 50°51' W 127°52'0 0.1
2015-Mar-30 11:28N 50°51' W 127°52'6 6.2
2015-Mar-30 10:33N 50°55' W 127°45'9 8.8
2015-Mar-30 09:31N 51°04' W 127°48'  
Track history (hours):
 
Tides and Currents Weather Stations Pressure Air Temp Water Temp Dewpoint Dewpoint Depression Visibility Wind Speed Wind Dir Waves Ship Positions

Arrow Post

Last reported at 2015-Mar-30 19:03 UTC. Time now 2015-Mar-31 06:42 UTC.
Position N 50°43' W 127°06'.

Length 29 m; draft 3.5 m.

Type: SAR. MMSI: 316001090.

Date/timePositionNaut miles runAvg speedWind from/ knotsBaromVisibWave heightAir tempDewpointWater temp
2015-Mar-30 19:03N 50°43' W 127°06'610.5
2015-Mar-30 18:29N 50°45' W 127°15'9 9.0
2015-Mar-30 17:32N 50°44' W 127°28'1 0.8
2015-Mar-30 16:33N 50°43' W 127°29'4 3.7
2015-Mar-30 15:33N 50°47' W 127°31'10 9.7
2015-Mar-30 14:33N 50°50' W 127°45'4 3.5
2015-Mar-30 13:16N 50°51' W 127°52'0 0.0
2015-Mar-30 12:16N 50°51' W 127°52'0 0.1
2015-Mar-30 11:28N 50°51' W 127°52'6 6.2
2015-Mar-30 10:33N 50°55' W 127°45'9 8.8
2015-Mar-30 09:31N 51°04' W 127°48'  

Dump ship's entire track history